Polar Ranger — WDC8652 — position and weather

sailwx.info

Track history (hours):
 
Tides and Currents Weather Stations Pressure Air Temp Water Temp Dewpoint Dewpoint Depression Visibility Wind Speed Wind Dir Waves Ship Positions

Polar Ranger

More information available from US FCC via Universal Licensing System and Coast Guard Vessel Documentation Center.

Last reported at 2014-Sep-17 01:00 UTC. Time now 2014-Sep-23 20:29 UTC.
Position N 59°06' W 152°24'.

Type: Tow > 200 m length. MMSI: 367090860.

Wind from 140 at 23 knots

Waves 1.0 meters (3 feet)

Barometer 1007.0 mb
Air temperature 11.7 ° C
Visibility: greater than 5.4 NM

Date/timePositionNaut miles runAvg speedWind from/ knotsBaromVisibWave heightAir tempDewpointWater temp
2014-Sep-17 01:00N 59°06' W 152°24'   140 / 231007.0 5.4 1.011.7
2014-Sep-11 00:00N 55°54' W 138°24'232 9.6 160 / 221022.0 5.4 1.015.6
2014-Sep-10 00:00N 54°30' W 132°06'232 7.8 230 / 51024.010.8 0.516.7
2014-Sep-08 18:14N 51°28' W 128°08'8 8.0
2014-Sep-08 17:10N 51°22' W 127°58'5 8.3
2014-Sep-08 16:33N 51°17' W 127°55'10 8.2
2014-Sep-08 15:22N 51°08' W 127°49'7 8.5
2014-Sep-08 14:33N 51°04' W 127°41'9 8.6
2014-Sep-08 13:33N 50°58' W 127°31'1010.3
2014-Sep-08 12:33N 50°52' W 127°17'9 9.0
2014-Sep-08 11:33N 50°47' W 127°05'9 8.4
2014-Sep-08 10:26N 50°42' W 126°54'7 7.8
2014-Sep-08 09:31N 50°37' W 126°45'9 6.5
2014-Sep-08 08:05N 50°31' W 126°34'3 5.1
2014-Sep-08 07:33N 50°31' W 126°30'77 5.9
2014-Sep-07 18:24N 49°48' W 124°49'7 5.4
2014-Sep-07 17:06N 49°43' W 124°41'3 5.4
2014-Sep-07 16:29N 49°41' W 124°37'6 5.5
2014-Sep-07 15:27N 49°38' W 124°30'5 5.4
2014-Sep-07 14:30N 49°35' W 124°23'5 5.5
2014-Sep-07 13:32N 49°32' W 124°16'9 8.7
2014-Sep-07 12:32N 49°28' W 124°05'9 8.9
2014-Sep-07 11:29N 49°23' W 123°53'8 9.1
2014-Sep-07 10:33N 49°18' W 123°43'9 9.0
2014-Sep-07 09:33N 49°11' W 123°32'10 9.6
2014-Sep-07 08:33N 49°05' W 123°22'1010.1
2014-Sep-07 07:33N 48°58' W 123°10'9 9.5
2014-Sep-07 06:33N 48°52' W 122°59'10 9.7
2014-Sep-07 05:32N 48°46' W 122°47'8 7.8
2014-Sep-07 04:34N 48°39' W 122°43'7 7.0
2014-Sep-07 03:33N 48°32' W 122°44'17 8.4
2014-Sep-07 01:28N 48°15' W 122°48'  
Track history (hours):
 
Tides and Currents Weather Stations Pressure Air Temp Water Temp Dewpoint Dewpoint Depression Visibility Wind Speed Wind Dir Waves Ship Positions

Polar Ranger

More information available from US FCC via Universal Licensing System and Coast Guard Vessel Documentation Center.

Last reported at 2014-Sep-17 01:00 UTC. Time now 2014-Sep-23 20:29 UTC.
Position N 59°06' W 152°24'.

Type: Tow > 200 m length. MMSI: 367090860.

Wind from 140 at 23 knots

Waves 1.0 meters (3 feet)

Barometer 1007.0 mb
Air temperature 11.7 ° C
Visibility: greater than 5.4 NM

Date/timePositionNaut miles runAvg speedWind from/ knotsBaromVisibWave heightAir tempDewpointWater temp
2014-Sep-17 01:00N 59°06' W 152°24'   140 / 231007.0 5.4 1.011.7
2014-Sep-11 00:00N 55°54' W 138°24'232 9.6 160 / 221022.0 5.4 1.015.6
2014-Sep-10 00:00N 54°30' W 132°06'232 7.8 230 / 51024.010.8 0.516.7
2014-Sep-08 18:14N 51°28' W 128°08'8 8.0
2014-Sep-08 17:10N 51°22' W 127°58'5 8.3
2014-Sep-08 16:33N 51°17' W 127°55'10 8.2
2014-Sep-08 15:22N 51°08' W 127°49'7 8.5
2014-Sep-08 14:33N 51°04' W 127°41'9 8.6
2014-Sep-08 13:33N 50°58' W 127°31'1010.3
2014-Sep-08 12:33N 50°52' W 127°17'9 9.0
2014-Sep-08 11:33N 50°47' W 127°05'9 8.4
2014-Sep-08 10:26N 50°42' W 126°54'7 7.8
2014-Sep-08 09:31N 50°37' W 126°45'9 6.5
2014-Sep-08 08:05N 50°31' W 126°34'3 5.1
2014-Sep-08 07:33N 50°31' W 126°30'77 5.9
2014-Sep-07 18:24N 49°48' W 124°49'7 5.4
2014-Sep-07 17:06N 49°43' W 124°41'3 5.4
2014-Sep-07 16:29N 49°41' W 124°37'6 5.5
2014-Sep-07 15:27N 49°38' W 124°30'5 5.4
2014-Sep-07 14:30N 49°35' W 124°23'5 5.5
2014-Sep-07 13:32N 49°32' W 124°16'9 8.7
2014-Sep-07 12:32N 49°28' W 124°05'9 8.9
2014-Sep-07 11:29N 49°23' W 123°53'8 9.1
2014-Sep-07 10:33N 49°18' W 123°43'9 9.0
2014-Sep-07 09:33N 49°11' W 123°32'10 9.6
2014-Sep-07 08:33N 49°05' W 123°22'1010.1
2014-Sep-07 07:33N 48°58' W 123°10'9 9.5
2014-Sep-07 06:33N 48°52' W 122°59'10 9.7
2014-Sep-07 05:32N 48°46' W 122°47'8 7.8
2014-Sep-07 04:34N 48°39' W 122°43'7 7.0
2014-Sep-07 03:33N 48°32' W 122°44'17 8.4
2014-Sep-07 01:28N 48°15' W 122°48'  

Dump ship's entire track history